createdAt,value
2022-11-06T00:01:07.747Z,100562.06
2022-11-06T00:03:36.460Z,100567.22
2022-11-06T00:06:38.981Z,100538.22
2022-11-06T00:09:13.020Z,100541.41
2022-11-06T00:11:42.692Z,100544.81
2022-11-06T00:14:12.375Z,100539.66
2022-11-06T00:16:42.141Z,100548.19
2022-11-06T00:19:10.278Z,100538.66
2022-11-06T00:21:39.623Z,100539.44
2022-11-06T00:24:09.039Z,100544.53
2022-11-06T00:26:37.408Z,100513.00
2022-11-06T00:29:07.455Z,100519.50
2022-11-06T00:31:37.915Z,100515.19
2022-11-06T00:34:09.857Z,100518.63
2022-11-06T00:36:38.087Z,100509.09
2022-11-06T00:39:06.215Z,100512.41
2022-11-06T00:41:34.219Z,100515.75
2022-11-06T00:44:06.530Z,100501.97
2022-11-06T00:46:34.433Z,100496.78
2022-11-06T00:49:02.499Z,100492.44
2022-11-06T00:51:36.402Z,100496.75
2022-11-06T00:54:06.296Z,100488.06
2022-11-06T00:56:35.287Z,100482.19
2022-11-06T00:59:07.496Z,100484.56
2022-11-06T01:01:42.297Z,100471.06
2022-11-06T01:04:20.215Z,100480.16
2022-11-06T01:06:50.878Z,100469.84
2022-11-06T01:09:21.568Z,100477.50
2022-11-06T01:14:44.895Z,100474.09
2022-11-06T01:17:14.045Z,100468.88
2022-11-06T01:19:42.151Z,100472.31
2022-11-06T01:22:11.129Z,100468.81
2022-11-06T01:24:39.535Z,100465.34
2022-11-06T01:30:01.657Z,100463.50
2022-11-06T01:32:32.158Z,100454.91
2022-11-06T01:35:00.237Z,100470.31
2022-11-06T01:37:29.865Z,100469.44
2022-11-06T01:39:57.782Z,100463.38
2022-11-06T01:42:25.826Z,100453.13
2022-11-06T01:45:20.118Z,100444.00
2022-11-06T01:47:48.719Z,100463.44
2022-11-06T01:50:18.364Z,100465.09
2022-11-06T01:52:49.658Z,100458.22
2022-11-06T01:55:26.611Z,100411.78
2022-11-06T01:57:57.473Z,100439.41
2022-11-06T02:00:26.750Z,100445.44
2022-11-06T02:02:55.006Z,100443.72
2022-11-06T02:05:23.221Z,100395.63
2022-11-06T02:07:52.554Z,100417.22
2022-11-06T02:10:20.676Z,100421.34
2022-11-06T02:12:54.348Z,100421.34
2022-11-06T02:16:23.947Z,100395.59
2022-11-06T02:19:13.456Z,100406.66
2022-11-06T02:22:14.190Z,100389.41
2022-11-06T02:24:56.568Z,100385.03
2022-11-06T02:27:34.400Z,100388.38
2022-11-06T02:30:02.318Z,100379.75
2022-11-06T02:32:39.793Z,100375.38
2022-11-06T02:35:39.132Z,100354.69
2022-11-06T02:38:15.439Z,100350.38
2022-11-06T02:40:49.865Z,100352.88
2022-11-06T02:43:20.297Z,100356.25
2022-11-06T02:46:05.363Z,100344.19
2022-11-06T02:48:41.590Z,100348.44
2022-11-06T02:51:16.489Z,100347.47
2022-11-06T02:53:46.462Z,100342.25
2022-11-06T02:56:19.155Z,100338.72
2022-11-06T02:59:02.637Z,100331.81
2022-11-06T03:01:37.873Z,100327.44
2022-11-06T03:04:22.014Z,100329.88
2022-11-06T03:07:02.558Z,100309.50
2022-11-06T03:09:33.864Z,100320.31
2022-11-06T03:12:19.519Z,100305.59
2022-11-06T03:15:26.694Z,100307.09
2022-11-06T03:18:06.946Z,100295.72
2022-11-06T03:21:08.821Z,100299.78
2022-11-06T03:23:49.092Z,100289.25
2022-11-06T03:26:23.562Z,100273.59
2022-11-06T03:29:13.488Z,100289.69
2022-11-06T03:32:10.832Z,100282.31
2022-11-06T03:35:01.845Z,100271.63
2022-11-06T03:37:37.674Z,100278.09
2022-11-06T03:40:10.811Z,100268.47
2022-11-06T03:42:42.787Z,100270.78
2022-11-06T03:45:17.506Z,100274.13
2022-11-06T03:47:56.419Z,100276.00
2022-11-06T03:51:08.663Z,100263.94
2022-11-06T03:53:44.242Z,100265.19
2022-11-06T03:56:31.457Z,100266.50
2022-11-06T03:59:02.851Z,100254.97
2022-11-06T04:01:37.271Z,100239.41
2022-11-06T04:04:16.871Z,100229.56
2022-11-06T04:06:58.963Z,100206.88
2022-11-06T04:09:50.680Z,100238.41
2022-11-06T04:12:40.956Z,100238.16
2022-11-06T04:15:16.099Z,100231.25
2022-11-06T04:17:44.203Z,100231.19
2022-11-06T04:20:37.086Z,100228.44
2022-11-06T04:23:33.124Z,100221.59
2022-11-06T04:26:37.131Z,100206.94
2022-11-06T04:29:23.502Z,100204.97
2022-11-06T04:32:07.648Z,100218.56
2022-11-06T04:34:42.503Z,100183.84
2022-11-06T04:37:34.293Z,100200.25
2022-11-06T04:40:18.604Z,100195.69
2022-11-06T04:43:01.106Z,100201.53
2022-11-06T04:45:39.161Z,100189.44
2022-11-06T04:48:08.269Z,100174.69
2022-11-06T04:50:53.680Z,100183.53
2022-11-06T04:53:24.408Z,100170.28
2022-11-06T04:55:55.835Z,100170.94
2022-11-06T04:58:24.118Z,100175.13
2022-11-06T05:00:52.904Z,100160.38
2022-11-06T05:03:20.906Z,100141.00
2022-11-06T05:05:49.918Z,100160.22
2022-11-06T05:08:20.832Z,100150.47
2022-11-06T05:10:49.398Z,100140.13
2022-11-06T05:13:18.683Z,100144.38
2022-11-06T05:15:46.869Z,100141.88
2022-11-06T05:18:15.200Z,100132.28
2022-11-06T05:20:44.042Z,100140.03
2022-11-06T05:23:12.044Z,100108.41
2022-11-06T05:25:41.080Z,100141.69
2022-11-06T05:28:11.126Z,100120.09
2022-11-06T05:30:39.371Z,100134.53
2022-11-06T05:33:07.375Z,100098.47
2022-11-06T05:35:36.583Z,100129.13
2022-11-06T05:38:05.033Z,100119.44
2022-11-06T05:40:33.201Z,100133.75
2022-11-06T05:43:02.390Z,100120.38
2022-11-06T05:45:30.378Z,100108.19
2022-11-06T05:47:58.360Z,100107.59
2022-11-06T05:50:26.476Z,100085.56
2022-11-06T05:52:54.688Z,100085.22
2022-11-06T05:55:22.649Z,100079.47
2022-11-06T05:57:52.104Z,100097.44
2022-11-06T06:00:20.164Z,100094.84
2022-11-06T06:02:48.247Z,100093.91
2022-11-06T06:05:17.670Z,100099.19
2022-11-06T06:07:45.688Z,100084.16
2022-11-06T06:10:13.670Z,100089.66
2022-11-06T06:12:42.693Z,100098.78
2022-11-06T06:15:11.930Z,100101.69
2022-11-06T06:17:39.923Z,100106.13
2022-11-06T06:20:10.675Z,100100.19
2022-11-06T06:22:38.629Z,100094.84
2022-11-06T06:25:17.406Z,100110.28
2022-11-06T06:27:50.523Z,100105.28
2022-11-06T06:30:18.882Z,100092.47
2022-11-06T06:32:46.921Z,100116.69
2022-11-06T06:35:15.102Z,100106.59
2022-11-06T06:37:43.043Z,100104.00
2022-11-06T06:40:11.520Z,100092.22
2022-11-06T06:42:40.029Z,100098.91
2022-11-06T06:45:08.213Z,100106.66
2022-11-06T06:47:36.271Z,100089.88
2022-11-06T06:50:05.688Z,100100.06
2022-11-06T06:52:33.733Z,100094.06
2022-11-06T06:55:01.846Z,100081.97
2022-11-06T06:57:32.173Z,100109.06
2022-11-06T07:00:00.331Z,100093.72
2022-11-06T07:02:28.628Z,100086.88
2022-11-06T07:04:57.571Z,100079.38
2022-11-06T07:07:25.554Z,100037.63
2022-11-06T07:09:53.475Z,100065.59
2022-11-06T07:12:21.692Z,100069.88
2022-11-06T07:14:49.634Z,100076.03
2022-11-06T07:17:17.634Z,100071.78
2022-11-06T07:19:45.761Z,100078.78
2022-11-06T07:22:13.749Z,100057.25
2022-11-06T07:24:41.811Z,100024.78
2022-11-06T07:27:09.936Z,100057.34
2022-11-06T07:29:37.973Z,100049.59
2022-11-06T07:32:09.677Z,100037.66
2022-11-06T07:34:41.691Z,100032.41
2022-11-06T07:37:09.822Z,100025.66
2022-11-06T07:39:37.790Z,100024.16
2022-11-06T07:42:06.682Z,100022.72
2022-11-06T07:44:34.724Z,100023.56
2022-11-06T07:47:02.878Z,100015.81
2022-11-06T07:49:31.812Z,100016.66
2022-11-06T07:51:59.865Z,100016.66
2022-11-06T07:54:27.869Z,100014.88
2022-11-06T07:56:55.967Z,100006.31
2022-11-06T07:59:24.006Z,100001.22
2022-11-06T08:01:52.250Z,100001.13
2022-11-06T08:04:21.742Z,99979.88
2022-11-06T08:06:49.783Z,99995.63
2022-11-06T08:09:17.726Z,99992.94
2022-11-06T08:11:49.365Z,99985.84
2022-11-06T08:14:17.904Z,99977.25
2022-11-06T08:16:45.842Z,99986.84
2022-11-06T08:19:15.683Z,99987.69
2022-11-06T08:21:43.599Z,99974.09
2022-11-06T08:24:11.778Z,99971.50
2022-11-06T08:26:39.958Z,99988.03
2022-11-06T08:29:07.935Z,99988.13
2022-11-06T08:31:35.813Z,99971.84
2022-11-06T08:34:04.182Z,99989.13
2022-11-06T08:36:32.207Z,99998.72
2022-11-06T08:39:00.207Z,99992.78
2022-11-06T08:41:28.276Z,100001.63
2022-11-06T08:43:56.206Z,99988.03
2022-11-06T08:46:24.122Z,99990.88
2022-11-06T08:48:52.286Z,99987.59
2022-11-06T08:51:20.332Z,99976.66
2022-11-06T08:53:48.373Z,99980.25
2022-11-06T08:56:17.575Z,99967.91
2022-11-06T08:58:45.730Z,99977.41
2022-11-06T09:01:14.052Z,99970.66
2022-11-06T09:03:42.347Z,99964.50
2022-11-06T09:06:11.373Z,99936.31
2022-11-06T09:08:39.391Z,99969.56
2022-11-06T09:11:11.770Z,99963.66
2022-11-06T09:13:39.799Z,99939.81
2022-11-06T09:16:12.879Z,99956.81
2022-11-06T09:18:44.672Z,99968.56
2022-11-06T09:21:12.714Z,99973.00
2022-11-06T09:23:40.760Z,99959.31
2022-11-06T09:26:08.969Z,99972.81
2022-11-06T09:28:36.871Z,99957.72
2022-11-06T09:31:04.855Z,99957.31
2022-11-06T09:33:33.901Z,99969.66
2022-11-06T09:36:07.956Z,99961.97
2022-11-06T09:38:36.050Z,99958.31
2022-11-06T09:41:05.470Z,99961.06
2022-11-06T09:44:10.427Z,99963.22
2022-11-06T09:46:48.118Z,99968.56
2022-11-06T09:49:18.801Z,99964.41
2022-11-06T09:51:52.554Z,99974.97
2022-11-06T09:54:47.956Z,99971.97
2022-11-06T09:57:45.193Z,99971.72
2022-11-06T10:00:15.776Z,99986.38
2022-11-06T10:03:06.952Z,99982.53
2022-11-06T10:05:39.821Z,99993.94
2022-11-06T10:08:23.456Z,99989.00
2022-11-06T10:11:01.752Z,99989.25
2022-11-06T10:13:38.377Z,99980.06
2022-11-06T10:16:40.002Z,99981.22
2022-11-06T10:19:20.148Z,99984.16
2022-11-06T10:21:49.777Z,99990.53
2022-11-06T10:24:17.372Z,99977.84
2022-11-06T10:26:54.780Z,99998.94
2022-11-06T10:29:37.606Z,99983.09
2022-11-06T10:32:37.521Z,99988.53
2022-11-06T10:35:32.219Z,99988.00
2022-11-06T10:38:17.036Z,99988.53
2022-11-06T10:40:54.287Z,99985.94
2022-11-06T10:43:56.774Z,99994.69
2022-11-06T10:46:41.854Z,99989.00
2022-11-06T10:49:36.504Z,99988.25
2022-11-06T10:52:22.726Z,99980.50
2022-11-06T10:55:11.047Z,99979.59
2022-11-06T10:57:53.864Z,99976.09
2022-11-06T11:00:22.867Z,99980.28
2022-11-06T11:02:55.904Z,99977.78
2022-11-06T11:05:26.997Z,99983.69
2022-11-06T11:08:00.045Z,99987.03
2022-11-06T11:10:38.687Z,99975.06
2022-11-06T11:13:08.769Z,99987.72
2022-11-06T11:15:46.645Z,99980.97
2022-11-06T11:18:14.719Z,99974.78
2022-11-06T11:20:48.483Z,99976.53
2022-11-06T11:23:26.732Z,99980.81
2022-11-06T11:25:57.725Z,99986.78
2022-11-06T11:28:36.854Z,99986.78
2022-11-06T11:31:17.119Z,99991.09
2022-11-06T11:33:58.117Z,99976.53
2022-11-06T11:36:26.532Z,99970.47
2022-11-06T11:38:54.682Z,99970.59
2022-11-06T11:41:26.498Z,99978.19
2022-11-06T11:44:05.383Z,99974.91
2022-11-06T11:46:35.666Z,99970.41
2022-11-06T11:49:03.886Z,99987.53
2022-11-06T11:51:52.319Z,99984.13
2022-11-06T11:54:27.487Z,99981.69
2022-11-06T11:57:18.167Z,99989.28
2022-11-06T11:59:50.631Z,99990.19
2022-11-06T12:02:28.856Z,99984.28
2022-11-06T12:05:04.233Z,99987.81
2022-11-06T12:07:37.484Z,99986.13
2022-11-06T12:10:31.879Z,99995.75
2022-11-06T12:13:03.673Z,100001.75
2022-11-06T12:15:58.372Z,99954.00
2022-11-06T12:18:36.986Z,99993.25
2022-11-06T12:21:18.439Z,99988.16
2022-11-06T12:24:01.026Z,99995.00
2022-11-06T12:27:05.836Z,100001.88
2022-11-06T12:29:39.310Z,99995.00
2022-11-06T12:32:11.797Z,99994.22
2022-11-06T12:35:05.220Z,99991.66
2022-11-06T12:37:50.868Z,99982.25
2022-11-06T12:40:43.350Z,99980.56
2022-11-06T12:43:31.148Z,99990.06
2022-11-06T12:46:42.102Z,99982.41
2022-11-06T12:49:45.360Z,99980.88
2022-11-06T12:52:46.125Z,99989.22
2022-11-06T12:55:35.441Z,99982.31
2022-11-06T12:58:24.249Z,99983.22
2022-11-06T13:01:13.685Z,99984.97
2022-11-06T13:04:04.804Z,99984.13
2022-11-06T13:06:59.514Z,99986.03
2022-11-06T13:09:34.877Z,99986.78
2022-11-06T13:12:40.887Z,99991.09
2022-11-06T13:15:30.766Z,99986.84
2022-11-06T13:17:58.665Z,99994.59
2022-11-06T13:20:39.297Z,99995.56
2022-11-06T13:23:20.258Z,99996.47
2022-11-06T13:26:17.026Z,99993.97
2022-11-06T13:28:51.384Z,99994.03
2022-11-06T13:31:23.326Z,99992.31
2022-11-06T13:34:00.498Z,99994.03
2022-11-06T13:36:30.945Z,99987.97
2022-11-06T13:39:06.741Z,99983.72
2022-11-06T13:41:34.834Z,99968.78
2022-11-06T13:44:06.422Z,99981.31
2022-11-06T13:46:53.540Z,99978.72
2022-11-06T13:49:30.509Z,99976.22
2022-11-06T13:52:00.051Z,99985.69
2022-11-06T13:55:01.720Z,99987.44
2022-11-06T13:57:50.680Z,99965.97
2022-11-06T14:00:55.980Z,99981.59
2022-11-06T14:03:30.071Z,99983.41
2022-11-06T14:06:09.488Z,99982.56
2022-11-06T14:08:58.515Z,99976.72
2022-11-06T14:11:33.947Z,99975.88
2022-11-06T14:14:08.642Z,99978.47
2022-11-06T14:16:41.951Z,99975.88
2022-11-06T14:19:30.635Z,99964.44
2022-11-06T14:22:27.650Z,99980.97
2022-11-06T14:25:01.189Z,99974.06
2022-11-06T14:27:31.446Z,99974.97
2022-11-06T14:30:20.701Z,99974.91
2022-11-06T14:32:49.138Z,99976.66
2022-11-06T14:35:52.581Z,99973.25
2022-11-06T14:38:34.361Z,99976.72
2022-11-06T14:41:03.812Z,99976.56
2022-11-06T14:43:35.760Z,99970.59
2022-11-06T14:46:25.561Z,99967.25
2022-11-06T14:48:56.897Z,99966.34
2022-11-06T14:51:30.107Z,99970.66
2022-11-06T14:54:09.250Z,99970.59
2022-11-06T14:56:39.970Z,99975.66
2022-11-06T14:59:25.162Z,99973.09
2022-11-06T15:02:27.440Z,99976.44
2022-11-06T15:05:08.951Z,99973.03
2022-11-06T15:08:05.890Z,99979.00
2022-11-06T15:10:44.900Z,99966.97
2022-11-06T15:13:17.077Z,99964.47
2022-11-06T15:15:51.976Z,99973.94
2022-11-06T15:18:28.025Z,99967.09
2022-11-06T15:21:04.632Z,99963.75
2022-11-06T15:23:45.746Z,99958.81
2022-11-06T15:26:48.818Z,99962.94
2022-11-06T15:29:18.570Z,99956.03
2022-11-06T15:31:50.062Z,99962.94
2022-11-06T15:34:24.112Z,99962.94
2022-11-06T15:36:57.509Z,99972.47
2022-11-06T15:39:50.798Z,99974.28
2022-11-06T15:42:24.070Z,99960.50
2022-11-06T15:44:53.091Z,99966.56
2022-11-06T15:47:30.030Z,99966.56
2022-11-06T15:50:15.648Z,99961.41
2022-11-06T15:52:45.289Z,99970.88
2022-11-06T15:55:23.288Z,99967.38
2022-11-06T15:57:52.668Z,99969.06
2022-11-06T16:00:26.317Z,99963.44
2022-11-06T16:03:00.744Z,99974.34
2022-11-06T16:05:32.090Z,99984.72
2022-11-06T16:08:02.004Z,99974.44
2022-11-06T16:10:30.647Z,99980.41
2022-11-06T16:12:59.125Z,99986.41
2022-11-06T16:15:57.719Z,99979.50
2022-11-06T16:18:44.720Z,99988.06
2022-11-06T16:21:18.717Z,99987.25
2022-11-06T16:24:01.262Z,99982.16
2022-11-06T16:26:40.775Z,99995.81
2022-11-06T16:29:24.534Z,99990.72
2022-11-06T16:32:07.719Z,99996.72
2022-11-06T16:34:46.690Z,100002.63
2022-11-06T16:37:18.643Z,100011.13
2022-11-06T16:39:50.169Z,99998.31
2022-11-06T16:42:29.022Z,99999.84
2022-11-06T16:45:02.793Z,100007.50
2022-11-06T16:47:32.276Z,100004.84
2022-11-06T16:50:03.833Z,100004.78
2022-11-06T16:52:40.739Z,100001.28
2022-11-06T16:55:17.995Z,100002.97
2022-11-06T16:57:56.174Z,100004.56
2022-11-06T17:00:31.814Z,99956.84
2022-11-06T17:03:09.705Z,100003.66
2022-11-06T17:05:40.411Z,100006.16
2022-11-06T17:08:37.085Z,100012.09
2022-11-06T17:11:14.938Z,100008.59
2022-11-06T17:13:46.164Z,100012.78
2022-11-06T17:16:27.328Z,100006.78
2022-11-06T17:18:55.971Z,100015.13
2022-11-06T17:21:25.898Z,100017.72
2022-11-06T17:24:03.659Z,100011.78
2022-11-06T17:26:38.661Z,100009.84
2022-11-06T17:29:07.632Z,100028.78
2022-11-06T17:31:35.682Z,100012.50
2022-11-06T17:34:04.141Z,100021.19
2022-11-06T17:36:34.835Z,100006.94
2022-11-06T17:39:02.812Z,100020.50
2022-11-06T17:41:30.815Z,100019.59
2022-11-06T17:44:09.764Z,100036.66
2022-11-06T17:46:48.058Z,100035.75
2022-11-06T17:49:18.885Z,100035.84
2022-11-06T17:51:51.272Z,100038.56
2022-11-06T17:54:22.362Z,100042.31
2022-11-06T17:56:53.789Z,100033.34
2022-11-06T17:59:22.401Z,100051.94
2022-11-06T18:01:51.270Z,100050.25
2022-11-06T18:04:21.660Z,100037.50
2022-11-06T18:06:52.919Z,100046.09
2022-11-06T18:09:22.443Z,100019.44
2022-11-06T18:11:51.932Z,100058.25
2022-11-06T18:14:23.150Z,100051.38
2022-11-06T18:16:51.606Z,100047.13
2022-11-06T18:19:22.792Z,100053.94
2022-11-06T18:21:51.349Z,100050.41
2022-11-06T18:24:19.483Z,100054.56
2022-11-06T18:26:47.511Z,100060.50
2022-11-06T18:29:15.760Z,100067.31
2022-11-06T18:31:43.779Z,100068.84
2022-11-06T18:34:19.782Z,100067.13
2022-11-06T18:36:51.064Z,100067.13
2022-11-06T18:39:20.090Z,100069.63
2022-11-06T18:41:48.304Z,100060.56
2022-11-06T18:44:18.600Z,100061.13
2022-11-06T18:46:47.713Z,100078.31
2022-11-06T18:49:16.341Z,100077.34
2022-11-06T18:51:44.823Z,100078.19
2022-11-06T18:54:14.066Z,100079.03
2022-11-06T18:56:42.344Z,100082.44
2022-11-06T18:59:18.999Z,100082.44
2022-11-06T19:01:47.881Z,100080.75
2022-11-06T19:04:16.994Z,100084.88
2022-11-06T19:06:46.014Z,100090.94
2022-11-06T19:09:14.003Z,100069.34
2022-11-06T19:11:41.986Z,100090.78
2022-11-06T19:14:10.127Z,100091.56
2022-11-06T19:16:38.124Z,100094.97
2022-11-06T19:19:07.074Z,100097.56
2022-11-06T19:21:36.134Z,100102.72
2022-11-06T19:24:05.622Z,100104.38
2022-11-06T19:26:37.311Z,100105.22
2022-11-06T19:29:11.762Z,100114.63
2022-11-06T19:31:39.951Z,100112.03
2022-11-06T19:34:09.897Z,100120.69
2022-11-06T19:36:38.082Z,100116.44
2022-11-06T19:39:08.008Z,100112.88
2022-11-06T19:41:36.029Z,100129.19
2022-11-06T19:44:04.195Z,100114.56
2022-11-06T19:46:36.074Z,100126.59
2022-11-06T19:49:09.572Z,100135.94
2022-11-06T19:51:43.749Z,100127.50
2022-11-06T19:54:11.902Z,100139.44
2022-11-06T19:57:29.518Z,100141.25
2022-11-06T19:59:28.905Z,100137.91
2022-11-06T20:01:57.386Z,100140.53
2022-11-06T20:04:26.908Z,100143.13
2022-11-06T20:06:54.939Z,100150.84
2022-11-06T20:09:23.079Z,100136.28
2022-11-06T20:11:53.257Z,100149.94
2022-11-06T20:14:22.664Z,100153.56
2022-11-06T20:16:51.264Z,100144.78
2022-11-06T20:19:19.515Z,100141.44
2022-11-06T20:21:47.748Z,100154.19
2022-11-06T20:24:18.964Z,100159.34
2022-11-06T20:26:46.935Z,100154.13
2022-11-06T20:29:15.025Z,100172.38
2022-11-06T20:31:45.212Z,100162.63
2022-11-06T20:34:13.271Z,100178.09
2022-11-06T20:36:41.374Z,100172.88
2022-11-06T20:39:10.025Z,100178.94
2022-11-06T20:41:38.022Z,100183.88
2022-11-06T20:44:06.186Z,100183.88
2022-11-06T20:46:35.066Z,100188.22
2022-11-06T20:49:03.109Z,100187.44
2022-11-06T20:51:42.930Z,100183.25
2022-11-06T20:54:22.615Z,100190.91
2022-11-06T20:56:51.576Z,100194.28
2022-11-06T20:59:19.729Z,100203.69
2022-11-06T21:01:48.168Z,100203.69
2022-11-06T21:04:16.482Z,100194.41
2022-11-06T21:06:45.324Z,100206.19
2022-11-06T21:09:14.159Z,100207.84
2022-11-06T21:11:42.143Z,100213.84
2022-11-06T21:14:10.238Z,100213.00
2022-11-06T21:16:38.685Z,100206.25
2022-11-06T21:19:06.812Z,100217.28
2022-11-06T21:21:38.002Z,100214.75
2022-11-06T21:24:08.704Z,100222.50
2022-11-06T21:26:38.844Z,100226.75
2022-11-06T21:29:11.291Z,100225.00
2022-11-06T21:31:45.698Z,100231.19
2022-11-06T21:34:17.864Z,100220.75
2022-11-06T21:36:47.755Z,100230.22
2022-11-06T21:39:20.564Z,100237.19
2022-11-06T21:41:48.867Z,100228.88
2022-11-06T21:44:20.678Z,100249.25
2022-11-06T21:46:48.697Z,100224.63
2022-11-06T21:49:16.621Z,100239.78
2022-11-06T21:51:44.838Z,100251.06
2022-11-06T21:54:32.070Z,100259.75
2022-11-06T21:57:01.705Z,100230.38
2022-11-06T21:59:30.470Z,100250.34
2022-11-06T22:01:58.991Z,100258.16
2022-11-06T22:04:29.817Z,100257.31
2022-11-06T22:06:57.919Z,100250.47
2022-11-06T22:09:26.971Z,100257.38
2022-11-06T22:11:55.268Z,100262.47
2022-11-06T22:14:23.195Z,100258.28
2022-11-06T22:16:51.184Z,100262.53
2022-11-06T22:19:20.615Z,100265.09
2022-11-06T22:21:48.585Z,100266.84
2022-11-06T22:24:16.809Z,100266.00
2022-11-06T22:26:45.071Z,100265.25
2022-11-06T22:29:15.335Z,100270.47
2022-11-06T22:31:43.393Z,100261.97
2022-11-06T22:34:13.923Z,100270.72
2022-11-06T22:36:42.768Z,100254.50
2022-11-06T22:39:12.667Z,100260.28
2022-11-06T22:41:42.352Z,100278.44
2022-11-06T22:44:10.863Z,100274.97
2022-11-06T22:46:39.129Z,100276.78
2022-11-06T22:49:08.923Z,100275.22
2022-11-06T22:51:36.991Z,100287.09
2022-11-06T22:54:05.494Z,100285.41
2022-11-06T22:56:35.679Z,100290.69
2022-11-06T22:59:08.424Z,100289.03
2022-11-06T23:01:41.914Z,100295.91
2022-11-06T23:04:17.270Z,100301.06
2022-11-06T23:06:45.996Z,100298.63
2022-11-06T23:09:16.012Z,100302.16
2022-11-06T23:11:47.680Z,100301.25
2022-11-06T23:14:15.730Z,100300.53
2022-11-06T23:16:59.041Z,100310.84
2022-11-06T23:19:29.451Z,100296.66
2022-11-06T23:22:16.540Z,100314.41
2022-11-06T23:24:44.661Z,100310.09
2022-11-06T23:27:12.982Z,100318.72
2022-11-06T23:29:41.160Z,100313.13
2022-11-06T23:32:09.271Z,100329.97
2022-11-06T23:34:37.145Z,100330.03
2022-11-06T23:37:05.413Z,100342.09
2022-11-06T23:39:33.459Z,100331.78
2022-11-06T23:42:01.598Z,100338.63
2022-11-06T23:44:47.942Z,100336.03
2022-11-06T23:47:16.059Z,100332.78
2022-11-06T23:49:44.011Z,100337.72
2022-11-06T23:52:13.672Z,100339.44
2022-11-06T23:54:41.376Z,100339.31
2022-11-06T23:57:10.981Z,100350.47
2022-11-06T23:59:39.185Z,100342.81
